Time;durP1;ratioP1;P1;durP2;ratioP2;P2;SDS_P1;SDS_P2;PMS_P1;PMS_P2;Temp;Humidity;BMP_temperature;BMP_pressure;BME280_temperature;BME280_humidity;BME280_pressure;Samples;Min_cycle;Max_cycle;Signal;HPM_P1;HPM_P2
2022/03/05 00:02:22;;;;;;;22.58;10.32;;;;;;;-139.48;100.00;61774.03;5015274;28;20092;-71
2022/03/05 00:05:06;;;;;;;22.52;10.20;;;;;;;-139.48;100.00;61774.03;5016268;28;20099;-69
2022/03/05 00:07:50;;;;;;;24.40;10.45;;;;;;;-139.48;100.00;61774.03;5015192;28;20052;-71
2022/03/05 00:10:35;;;;;;;25.08;10.55;;;;;;;-139.48;100.00;61774.03;5015039;28;20124;-71
2022/03/05 00:13:19;;;;;;;21.70;10.23;;;;;;;-139.48;100.00;61774.03;5015053;28;20049;-71
2022/03/05 00:16:04;;;;;;;22.58;10.70;;;;;;;-139.48;100.00;61774.03;5001160;28;20084;-71
2022/03/05 00:18:49;;;;;;;23.98;10.77;;;;;;;-139.48;100.00;61774.03;5015947;28;20045;-71
2022/03/05 00:21:33;;;;;;;21.85;11.02;;;;;;;-139.48;100.00;61774.03;5016210;28;20056;-71
2022/03/05 00:24:17;;;;;;;22.50;10.23;;;;;;;-139.48;100.00;61774.03;5016165;28;20052;-71
2022/03/05 00:27:04;;;;;;;25.00;10.90;;;;;;;-139.48;100.00;61774.03;5016077;28;20052;-72
2022/03/05 00:29:48;;;;;;;24.75;10.70;;;;;;;-139.48;100.00;61774.03;5001246;28;20472;-71
2022/03/05 00:32:32;;;;;;;20.20;9.35;;;;;;;-139.48;100.00;61774.03;5015936;28;20111;-72
2022/03/05 00:35:17;;;;;;;20.48;10.30;;;;;;;-139.48;100.00;61774.03;5014881;28;20524;-72
2022/03/05 00:38:01;;;;;;;24.33;10.57;;;;;;;-139.48;100.00;61774.03;5015601;28;20045;-72
2022/03/05 00:40:46;;;;;;;23.95;10.77;;;;;;;-139.48;100.00;61774.03;5014684;28;20096;-71
2022/03/05 00:43:30;;;;;;;21.83;10.48;;;;;;;-139.48;100.00;61774.03;5015967;28;20143;-72
2022/03/05 00:46:14;;;;;;;23.25;10.32;;;;;;;-139.48;100.00;61774.03;5015435;28;20196;-72
2022/03/05 00:48:58;;;;;;;21.85;9.52;;;;;;;-139.48;100.00;61774.03;5015307;28;20133;-72
2022/03/05 00:51:41;;;;;;;22.88;10.02;;;;;;;-139.48;100.00;61774.03;5015394;28;20049;-72
2022/03/05 00:54:26;;;;;;;21.40;10.02;;;;;;;-139.48;100.00;61774.03;5015327;28;20068;-72
2022/03/05 00:57:10;;;;;;;22.10;10.25;;;;;;;-139.48;100.00;61774.03;5015298;28;20111;-71
2022/03/05 00:59:53;;;;;;;18.40;9.35;;;;;;;-139.48;100.00;61774.03;5014895;28;20430;-71
2022/03/05 01:02:38;;;;;;;;;;;;;;;-139.48;100.00;61774.03;5015509;28;20139;-71
2022/03/05 01:05:22;;;;;;;18.80;9.07;;;;;;;-139.48;100.00;61774.03;5015114;28;19920;-71
2022/03/05 01:08:06;;;;;;;18.02;8.82;;;;;;;-139.48;100.00;61774.03;5015385;28;20088;-70
2022/03/05 01:10:50;;;;;;;;;;;;;;;-139.48;100.00;61774.03;5015293;28;20418;-71
2022/03/05 01:13:34;;;;;;;20.45;9.63;;;;;;;-139.48;100.00;61774.03;5015396;28;19920;-72
2022/03/05 01:16:18;;;;;;;23.33;11.70;;;;;;;-139.48;100.00;61774.03;5014106;28;20187;-71
2022/03/05 01:19:02;;;;;;;20.50;9.88;;;;;;;-139.48;100.00;61774.03;5013898;28;20044;-72
2022/03/05 01:21:46;;;;;;;20.05;8.73;;;;;;;-139.48;100.00;61774.03;5013976;28;20104;-71
2022/03/05 01:24:30;;;;;;;19.02;10.25;;;;;;;-139.48;100.00;61774.03;5013846;28;20133;-72
2022/03/05 01:27:14;;;;;;;18.27;9.48;;;;;;;-139.48;100.00;61774.03;5014915;28;20143;-71
2022/03/05 01:29:58;;;;;;;21.80;10.02;;;;;;;-139.48;100.00;61774.03;5013599;28;20147;-71
2022/03/05 01:32:42;;;;;;;21.63;9.68;;;;;;;-139.48;100.00;61774.03;5014803;28;20527;-71
2022/03/05 01:35:27;;;;;;;19.55;9.80;;;;;;;-139.48;100.00;61774.03;5014811;28;20525;-72
2022/03/05 01:38:10;;;;;;;20.38;9.68;;;;;;;-139.48;100.00;61774.03;5013398;28;20056;-71
2022/03/05 01:40:55;;;;;;;18.48;9.25;;;;;;;-139.48;100.00;61774.03;5014642;28;20052;-72
2022/03/05 01:43:38;;;;;;;;;;;;;;;-139.48;100.00;61774.03;5014939;28;20127;-72
2022/03/05 01:46:34;;;;;;;25.52;10.65;;;;;;;-139.48;100.00;61774.03;5014580;28;19959;-72
2022/03/05 01:49:18;;;;;;;23.92;10.95;;;;;;;-139.48;100.00;61774.03;5013542;28;20434;-70
2022/03/05 01:52:02;;;;;;;21.50;10.70;;;;;;;-139.48;100.00;61774.03;5014420;28;20052;-72
2022/03/05 01:54:46;;;;;;;20.38;10.00;;;;;;;-139.48;100.00;61774.03;5014435;28;20053;-72
2022/03/05 01:57:30;;;;;;;21.00;9.70;;;;;;;-139.48;100.00;61774.03;5013113;28;20048;-70
2022/03/05 02:00:14;;;;;;;;;;;;;;;-139.48;100.00;61774.03;5014442;28;20057;-71
2022/03/05 02:02:58;;;;;;;24.92;9.35;;;;;;;-139.48;100.00;61774.03;5014325;28;19920;-71
2022/03/05 02:05:42;;;;;;;;;;;;;;;-139.48;100.00;61774.03;5013642;28;20508;-70
2022/03/05 02:08:26;;;;;;;23.40;10.18;;;;;;;-139.48;100.00;61774.03;5014131;28;19921;-71
2022/03/05 02:11:10;;;;;;;;;;;;;;;-139.48;100.00;61774.03;5013605;28;20112;-71
2022/03/05 02:13:54;;;;;;;19.95;10.48;;;;;;;-139.48;100.00;61774.03;5014324;28;19920;-70
2022/03/05 02:16:38;;;;;;;;;;;;;;;-139.48;100.00;61774.03;5014605;28;20056;-71
2022/03/05 02:19:22;;;;;;;17.95;9.23;;;;;;;-139.48;100.00;61774.03;5012972;28;19921;-71
2022/03/05 02:22:06;;;;;;;;;;;;;;;-139.48;100.00;61774.03;5013361;28;20049;-71
2022/03/05 02:25:03;;;;;;;18.65;8.93;;;;;;;-139.48;100.00;61774.03;5012643;28;20399;-72
2022/03/05 02:27:46;;;;;;;20.67;9.73;;;;;;;-139.48;100.00;61774.03;5012650;28;20168;-72
2022/03/05 02:30:30;;;;;;;23.48;9.75;;;;;;;-139.48;100.00;61774.03;5013621;28;20072;-68
2022/03/05 02:33:14;;;;;;;;;;;;;;;-139.48;100.00;61774.03;4998943;28;20048;-71
2022/03/05 02:35:58;;;;;;;21.02;10.48;;;;;;;-139.48;100.00;61774.03;5013717;28;19920;-70
2022/03/05 02:38:42;;;;;;;20.27;9.48;;;;;;;-139.48;100.00;61774.03;5013897;28;20064;-72
2022/03/05 02:41:26;;;;;;;;;;;;;;;-139.48;100.00;61774.03;5014249;28;20049;-70
2022/03/05 02:44:10;;;;;;;14.87;6.43;;;;;;;-139.48;100.00;61774.03;5013573;28;19936;-72
2022/03/05 02:46:54;;;;;;;21.63;9.73;;;;;;;-139.48;100.00;61774.03;5013560;28;20052;-72
2022/03/05 02:49:38;;;;;;;20.33;9.63;;;;;;;-139.48;100.00;61774.03;5012222;28;20053;-70
2022/03/05 02:52:22;;;;;;;22.50;10.25;;;;;;;-139.48;100.00;61774.03;5012194;28;20048;-71
2022/03/05 02:55:06;;;;;;;;;;;;;;;-139.48;100.00;61774.03;5014056;28;20052;-71
2022/03/05 02:57:50;;;;;;;19.02;9.93;;;;;;;-139.48;100.00;61774.03;5012093;28;20290;-72
2022/03/05 03:00:34;;;;;;;22.15;10.65;;;;;;;-139.48;100.00;61774.03;5011866;28;20103;-72
2022/03/05 03:03:18;;;;;;;;;;;;;;;-139.48;100.00;61774.03;5013678;28;20076;-72
2022/03/05 03:06:02;;;;;;;19.08;8.88;;;;;;;-139.48;100.00;61774.03;5012193;28;19933;-71
2022/03/05 03:08:46;;;;;;;21.27;10.07;;;;;;;-139.48;100.00;61774.03;5012069;28;20048;-71
2022/03/05 03:11:30;;;;;;;24.05;10.80;;;;;;;-139.48;100.00;61774.03;5012890;28;20088;-71
2022/03/05 03:14:14;;;;;;;;;;;;;;;-139.48;100.00;61774.03;5013555;28;20108;-71
2022/03/05 03:16:58;;;;;;;20.15;8.07;;;;;;;-139.48;100.00;61774.03;5012870;28;19924;-70
2022/03/05 03:19:41;;;;;;;;;;;;;;;-139.48;100.00;61774.03;5013339;28;20160;-71
2022/03/05 03:22:25;;;;;;;22.90;9.50;;;;;;;-139.48;100.00;61774.03;5012787;28;20419;-71
2022/03/05 03:25:10;;;;;;;;;;;;;;;-139.48;100.00;61774.03;5012607;28;20056;-71
2022/03/05 03:27:54;;;;;;;18.50;9.25;;;;;;;-139.48;100.00;61774.03;5011958;28;20012;-71
2022/03/05 03:30:38;;;;;;;18.05;9.25;;;;;;;-139.48;100.00;61774.03;5011588;28;20485;-71
2022/03/05 03:33:22;;;;;;;19.52;9.48;;;;;;;-139.48;100.00;61774.03;5013002;28;20049;-71
2022/03/05 03:36:05;;;;;;;;;;;;;;;-139.48;100.00;61774.03;5013101;28;20048;-71
2022/03/05 03:38:49;;;;;;;17.17;8.85;;;;;;;-139.48;100.00;61774.03;5012802;28;19923;-71
2022/03/05 03:41:33;;;;;;;;;;;;;;;-139.48;100.00;61774.03;5013038;28;20064;-71
2022/03/05 03:44:17;;;;;;;16.48;9.07;;;;;;;-139.48;100.00;61774.03;5012883;28;19932;-71
2022/03/05 03:47:01;;;;;;;;;;;;;;;-139.48;100.00;61774.03;5012248;28;20052;-71
2022/03/05 03:49:46;;;;;;;24.25;10.02;;;;;;;-139.48;100.00;61774.03;5012492;28;19929;-71
2022/03/05 03:52:30;;;;;;;22.60;9.88;;;;;;;-139.48;100.00;61774.03;5011716;28;20068;-71
2022/03/05 03:55:15;;;;;;;;;;;;;;;-139.48;100.00;61774.03;5013379;28;20061;-71
2022/03/05 03:57:59;;;;;;;21.67;9.65;;;;;;;-139.48;100.00;61774.03;5012582;28;19924;-71
2022/03/05 04:00:43;;;;;;;18.88;9.15;;;;;;;-139.48;100.00;61774.03;5013008;28;20049;-71
2022/03/05 04:03:27;;;;;;;18.17;9.30;;;;;;;-139.48;100.00;61774.03;5012979;28;20409;-70
2022/03/05 04:06:11;;;;;;;;;;;;;;;-139.48;100.00;61774.03;5012874;28;20381;-71
2022/03/05 04:08:55;;;;;;;24.35;8.90;;;;;;;-139.48;100.00;61774.03;5012737;28;19928;-71
2022/03/05 04:11:39;;;;;;;23.20;9.98;;;;;;;-139.48;100.00;61774.03;5012751;28;20076;-70
2022/03/05 04:14:23;;;;;;;20.67;9.32;;;;;;;-139.48;100.00;61774.03;5012805;28;20072;-71
2022/03/05 04:17:07;;;;;;;20.92;10.20;;;;;;;-139.48;100.00;61774.03;5012614;28;20104;-71
2022/03/05 04:19:50;;;;;;;;;;;;;;;-139.48;100.00;61774.03;5012665;28;20046;-72
2022/03/05 04:22:35;;;;;;;20.25;9.35;;;;;;;-139.48;100.00;61774.03;5012492;28;19920;-72
2022/03/05 04:25:19;;;;;;;21.40;8.52;;;;;;;-139.48;100.00;61774.03;5011177;28;20188;-71
2022/03/05 04:28:03;;;;;;;23.95;10.55;;;;;;;-139.48;100.00;61774.03;5012230;28;20482;-72
2022/03/05 04:30:47;;;;;;;19.95;9.55;;;;;;;-139.48;100.00;61774.03;5011207;28;20134;-72
2022/03/05 04:33:32;;;;;;;20.23;10.07;;;;;;;-139.48;100.00;61774.03;5011336;28;20470;-72
2022/03/05 04:36:16;;;;;;;17.67;8.82;;;;;;;-139.48;100.00;61774.03;5013349;28;20184;-72
2022/03/05 04:39:00;;;;;;;22.88;10.75;;;;;;;-139.48;100.00;61774.03;5014544;28;20052;-72
2022/03/05 04:41:44;;;;;;;;;;;;;;;-139.48;100.00;61774.03;5016227;28;20172;-72
2022/03/05 04:44:28;;;;;;;20.35;9.57;;;;;;;-139.48;100.00;61774.03;5016050;28;20368;-72
2022/03/05 04:47:12;;;;;;;24.35;10.60;;;;;;;-139.48;100.00;61774.03;5014628;28;20064;-72
2022/03/05 04:49:56;;;;;;;20.90;9.98;;;;;;;-139.48;100.00;61774.03;5014457;28;20048;-70
2022/03/05 04:52:40;;;;;;;;;;;;;;;-139.48;100.00;61774.03;5015796;28;20124;-71
2022/03/05 04:55:24;;;;;;;22.80;10.57;;;;;;;-139.48;100.00;61774.03;5015719;28;19981;-71
2022/03/05 04:58:09;;;;;;;23.98;11.02;;;;;;;-139.48;100.00;61774.03;5014410;28;20045;-72
2022/03/05 05:00:53;;;;;;;19.05;9.45;;;;;;;-139.48;100.00;61774.03;5015013;28;20091;-72
2022/03/05 05:03:37;;;;;;;18.80;9.57;;;;;;;-139.48;100.00;61774.03;5015396;28;20072;-72
2022/03/05 05:06:21;;;;;;;24.02;10.45;;;;;;;-139.48;100.00;61774.03;5014077;28;20477;-71
2022/03/05 05:09:07;;;;;;;23.35;10.00;;;;;;;-139.48;100.00;61774.03;5015153;28;20145;-71
2022/03/05 05:11:51;;;;;;;17.92;9.52;;;;;;;-139.48;100.00;61774.03;5013993;28;20128;-72
2022/03/05 05:14:35;;;;;;;22.70;10.77;;;;;;;-139.48;100.00;61774.03;5014992;28;20045;-70
2022/03/05 05:17:19;;;;;;;23.17;10.13;;;;;;;-139.48;100.00;61774.03;5014124;28;20497;-72
2022/03/05 05:20:06;;;;;;;;;;;;;;;-139.48;100.00;61774.03;5014241;28;20045;-71
2022/03/05 05:22:51;;;;;;;21.85;10.50;;;;;;;-139.48;100.00;61774.03;5013930;28;20023;-71
2022/03/05 05:25:34;;;;;;;22.17;9.77;;;;;;;-139.48;100.00;61774.03;5013794;28;20079;-72
2022/03/05 05:28:19;;;;;;;22.10;10.23;;;;;;;-139.48;100.00;61774.03;5014742;28;20129;-72
2022/03/05 05:31:02;;;;;;;27.00;10.45;;;;;;;-139.48;100.00;61774.03;5013777;28;20052;-72
2022/03/05 05:33:46;;;;;;;;;;;;;;;-139.48;100.00;61774.03;5015416;28;20445;-72
2022/03/05 05:36:30;;;;;;;23.92;10.55;;;;;;;-139.48;100.00;61774.03;5015085;28;19936;-71
2022/03/05 05:39:15;;;;;;;;;;;;;;;-139.48;100.00;61774.03;5014999;28;20077;-72
2022/03/05 05:41:59;;;;;;;23.48;10.30;;;;;;;-139.48;100.00;61774.03;5014442;28;20274;-72
2022/03/05 05:44:43;;;;;;;22.40;10.63;;;;;;;-139.48;100.00;61774.03;5013346;28;20103;-72
2022/03/05 05:47:27;;;;;;;24.30;10.75;;;;;;;-139.48;100.00;61774.03;5012958;28;20065;-72
2022/03/05 05:50:11;;;;;;;;;;;;;;;-139.48;100.00;61774.03;5013594;28;20104;-68
2022/03/05 05:52:55;;;;;;;26.50;10.93;;;;;;;-139.48;100.00;61774.03;5013818;28;19920;-70
2022/03/05 05:55:39;;;;;;;;;;;;;;;-139.48;100.00;61774.03;5014707;28;20148;-71
2022/03/05 05:58:23;;;;;;;24.65;10.80;;;;;;;-139.48;100.00;61774.03;5013164;28;19940;-71
2022/03/05 06:01:07;;;;;;;;;;;;;;;-139.48;100.00;61774.03;5014326;28;20080;-71
2022/03/05 06:03:52;;;;;;;24.42;10.70;;;;;;;-139.48;100.00;61774.03;5014077;28;19920;-72
2022/03/05 06:06:36;;;;;;;21.45;11.43;;;;;;;-139.48;100.00;61774.03;5013980;28;20103;-72
2022/03/05 06:09:20;;;;;;;21.88;10.75;;;;;;;-139.48;100.00;61774.03;5013794;28;20103;-68
2022/03/05 06:12:04;;;;;;;;;;;;;;;-139.48;100.00;61774.03;5014845;28;20103;-70
2022/03/05 06:14:48;;;;;;;25.83;12.10;;;;;;;-139.48;100.00;61774.03;5012889;28;20024;-71
2022/03/05 06:17:32;;;;;;;25.23;12.18;;;;;;;-139.48;100.00;61774.03;5014068;28;20129;-71
2022/03/05 06:20:15;;;;;;;25.95;11.75;;;;;;;-139.48;100.00;61774.03;5013778;28;20044;-71
2022/03/05 06:22:59;;;;;;;;;;;;;;;-139.48;100.00;61774.03;5013434;28;20111;-71
2022/03/05 06:25:44;;;;;;;15.68;8.13;;;;;;;-139.48;100.00;61774.03;5013944;28;19959;-71
2022/03/05 06:28:28;;;;;;;27.60;13.30;;;;;;;-139.48;100.00;61774.03;5013628;28;20041;-71
2022/03/05 06:31:12;;;;;;;26.73;11.52;;;;;;;-139.48;100.00;61774.03;5012741;28;20057;-71
2022/03/05 06:33:56;;;;;;;25.02;12.02;;;;;;;-139.48;100.00;61774.03;5013780;28;20040;-71
2022/03/05 06:36:39;;;;;;;27.15;12.88;;;;;;;-139.48;100.00;61774.03;5013519;28;20127;-70
2022/03/05 06:39:23;;;;;;;;;;;;;;;-139.48;100.00;61774.03;5012943;28;20084;-70
2022/03/05 06:42:07;;;;;;;28.33;13.52;;;;;;;-139.48;100.00;61774.03;5013498;28;19939;-72
2022/03/05 06:44:51;;;;;;;27.48;12.80;;;;;;;-139.48;100.00;61774.03;5012840;28;20100;-72
2022/03/05 06:47:36;;;;;;;26.52;12.63;;;;;;;-139.48;100.00;61774.03;5013356;28;20049;-72
2022/03/05 06:50:20;;;;;;;22.85;11.77;;;;;;;-139.48;100.00;61774.03;5013241;28;20183;-73
2022/03/05 06:53:05;;;;;;;29.10;12.00;;;;;;;-139.48;100.00;61774.03;4998551;28;20084;-73
2022/03/05 06:55:49;;;;;;;24.27;11.98;;;;;;;-139.48;100.00;61774.03;5012193;28;20405;-74
2022/03/05 06:58:33;;;;;;;28.30;12.43;;;;;;;-139.48;100.00;61774.03;4997676;28;20402;-71
2022/03/05 07:01:16;;;;;;;25.92;12.02;;;;;;;-139.48;100.00;61774.03;5013251;28;20240;-73
2022/03/05 07:04:00;;;;;;;26.10;10.85;;;;;;;-139.48;100.00;61774.03;5013060;28;20421;-70
2022/03/05 07:06:44;;;;;;;24.15;12.15;;;;;;;-139.48;100.00;61774.03;5012244;28;20052;-73
2022/03/05 07:09:28;;;;;;;22.10;12.00;;;;;;;-139.48;100.00;61774.03;5012092;28;20057;-73
2022/03/05 07:12:12;;;;;;;;;;;;;;;-139.48;100.00;61774.03;5013409;28;20137;-73
2022/03/05 07:14:56;;;;;;;27.77;12.32;;;;;;;-139.48;100.00;61774.03;5012190;28;19920;-73
2022/03/05 07:17:46;;;;;;;;;;;;;;;-139.48;100.00;61774.03;4998872;28;20080;-73
2022/03/05 07:20:30;;;;;;;23.75;12.13;;;;;;;-139.48;100.00;61774.03;5011784;28;19976;-72
2022/03/05 07:23:14;;;;;;;;;;;;;;;-139.48;100.00;61774.03;5013527;28;20559;-72
2022/03/05 07:25:58;;;;;;;26.30;12.15;;;;;;;-139.48;100.00;61774.03;5012886;28;19983;-72
2022/03/05 07:28:42;;;;;;;25.92;12.20;;;;;;;-139.48;100.00;61774.03;5012086;28;20068;-72
2022/03/05 07:31:26;;;;;;;;;;;;;;;-139.48;100.00;61774.03;4998578;28;20088;-73
2022/03/05 07:34:10;;;;;;;27.25;12.18;;;;;;;-139.48;100.00;61774.03;5012058;28;19947;-73
2022/03/05 07:36:54;;;;;;;21.55;10.98;;;;;;;-139.48;100.00;61774.03;5011920;28;20112;-73
2022/03/05 07:39:38;;;;;;;22.45;11.13;;;;;;;-139.48;100.00;61774.03;5011877;28;20073;-73
2022/03/05 07:42:22;;;;;;;29.02;12.98;;;;;;;-139.48;100.00;61774.03;5011865;28;20520;-74
2022/03/05 07:45:06;;;;;;;;;;;;;;;-139.48;100.00;61774.03;5013368;28;20172;-74
2022/03/05 07:47:50;;;;;;;24.55;11.35;;;;;;;-139.48;100.00;61774.03;5011962;28;20059;-74
2022/03/05 07:50:34;;;;;;;27.20;14.25;;;;;;;-139.48;100.00;61774.03;5012575;28;20049;-73
2022/03/05 07:53:18;;;;;;;27.65;12.25;;;;;;;-139.48;100.00;61774.03;5011670;28;20048;-74
2022/03/05 07:56:03;;;;;;;23.17;11.93;;;;;;;-139.48;100.00;61774.03;5011691;28;20056;-74
2022/03/05 07:58:47;;;;;;;24.67;11.80;;;;;;;-139.48;100.00;61774.03;5011827;28;20049;-74
2022/03/05 08:01:31;;;;;;;23.13;11.85;;;;;;;-139.48;100.00;61774.03;5012772;28;20057;-74
2022/03/05 08:04:16;;;;;;;25.80;11.88;;;;;;;-139.48;100.00;61774.03;5012956;28;20092;-72
2022/03/05 08:06:59;;;;;;;24.25;11.80;;;;;;;-139.48;100.00;61774.03;5011685;28;20433;-73
2022/03/05 08:09:43;;;;;;;22.20;11.25;;;;;;;-139.48;100.00;61774.03;4998259;28;20470;-74
2022/03/05 08:12:27;;;;;;;23.02;11.35;;;;;;;-139.48;100.00;61774.03;5015352;28;20052;-74
2022/03/05 08:15:11;;;;;;;26.40;12.63;;;;;;;-139.48;100.00;61774.03;5016111;28;20137;-71
2022/03/05 08:17:57;;;;;;;23.65;12.10;;;;;;;-139.48;100.00;61774.03;5015319;28;20081;-73
2022/03/05 08:20:41;;;;;;;19.80;11.18;;;;;;;-139.48;100.00;61774.03;5015892;28;20513;-74
2022/03/05 08:23:25;;;;;;;;;;;;;;;-139.48;100.00;61774.03;5015609;28;20045;-73
2022/03/05 08:26:13;;;;;;;22.23;11.02;;;;;;;-139.48;100.00;61774.03;5015190;28;19970;-74
2022/03/05 08:28:57;;;;;;;20.23;10.88;;;;;;;-139.48;100.00;61774.03;5015259;28;20529;-74
2022/03/05 08:31:41;;;;;;;21.70;11.63;;;;;;;-139.48;100.00;61774.03;5014741;28;20049;-70
2022/03/05 08:34:24;;;;;;;25.77;13.07;;;;;;;-139.48;100.00;61774.03;5001110;28;20192;-74
2022/03/05 08:37:08;;;;;;;28.60;14.57;;;;;;;-139.48;100.00;61774.03;5015873;28;20048;-73
2022/03/05 08:39:52;;;;;;;22.98;11.57;;;;;;;-139.48;100.00;61774.03;5015837;28;20048;-75
2022/03/05 08:42:36;;;;;;;31.35;16.35;;;;;;;-139.48;100.00;61774.03;5014566;28;20049;-74
2022/03/05 08:45:20;;;;;;;36.97;19.80;;;;;;;-139.48;100.00;61774.03;5014377;28;20072;-74
2022/03/05 08:48:04;;;;;;;;;;;;;;;-139.48;100.00;61774.03;5016143;28;20057;-72
2022/03/05 08:50:48;;;;;;;28.93;18.20;;;;;;;-139.48;100.00;61774.03;5014413;28;19924;-75
2022/03/05 08:53:32;;;;;;;32.25;15.50;;;;;;;-139.48;100.00;61774.03;5014896;28;20106;-72
2022/03/05 08:56:16;;;;;;;33.58;20.20;;;;;;;-139.48;100.00;61774.03;5000886;28;20056;-75
2022/03/05 08:59:00;;;;;;;23.80;13.70;;;;;;;-139.48;100.00;61774.03;5014251;28;20141;-72
2022/03/05 09:01:44;;;;;;;91.40;51.33;;;;;;;-139.48;100.00;61774.03;5014478;28;20088;-71
2022/03/05 09:04:28;;;;;;;37.42;22.42;;;;;;;-139.48;100.00;61774.03;5014461;28;20132;-75
2022/03/05 09:07:12;;;;;;;;;;;;;;;-139.48;100.00;61774.03;5016351;28;20123;-74
2022/03/05 09:09:56;;;;;;;24.77;11.97;;;;;;;-139.48;100.00;61774.03;5014916;28;20098;-74
2022/03/05 09:12:40;;;;;;;28.13;16.25;;;;;;;-139.48;100.00;61774.03;5002170;28;20325;-73
2022/03/05 09:15:25;;;;;;;30.40;13.43;;;;;;;-139.48;100.00;61774.03;5015652;28;20076;-74
2022/03/05 09:18:10;;;;;;;26.42;15.30;;;;;;;-139.48;100.00;61774.03;5014182;28;20107;-74
2022/03/05 09:20:54;;;;;;;49.95;29.27;;;;;;;-139.48;100.00;61774.03;5014624;28;20068;-74
2022/03/05 09:23:38;;;;;;;35.38;21.60;;;;;;;-139.48;100.00;61774.03;5013771;28;20517;-74
2022/03/05 09:26:22;;;;;;;30.80;17.90;;;;;;;-139.48;100.00;61774.03;5013750;28;20048;-74
2022/03/05 09:29:06;;;;;;;31.63;20.40;;;;;;;-139.48;100.00;61774.03;5013803;28;20049;-74
2022/03/05 09:31:50;;;;;;;35.72;21.67;;;;;;;-139.48;100.00;61774.03;5013872;28;20096;-74
2022/03/05 09:34:33;;;;;;;32.50;18.75;;;;;;;-139.48;100.00;61774.03;5014926;28;20052;-74
2022/03/05 09:37:17;;;;;;;32.78;20.70;;;;;;;-139.48;100.00;61774.03;5013880;28;20523;-74
2022/03/05 09:40:03;;;;;;;32.05;19.75;;;;;;;-139.48;100.00;61774.03;5014725;28;20045;-74
2022/03/05 09:42:47;;;;;;;22.30;14.02;;;;;;;-139.48;100.00;61774.03;5013713;28;20057;-74
2022/03/05 09:45:31;;;;;;;24.92;13.38;;;;;;;-139.48;100.00;61774.03;5014671;28;20103;-74
2022/03/05 09:48:17;;;;;;;18.33;11.20;;;;;;;-139.48;100.00;61774.03;5014676;28;20052;-75
2022/03/05 09:51:00;;;;;;;31.02;20.73;;;;;;;-139.48;100.00;61774.03;5014225;28;20374;-74
2022/03/05 09:53:45;;;;;;;135.05;78.75;;;;;;;-139.48;100.00;61774.03;5014425;28;20152;-74
2022/03/05 09:56:28;;;;;;;;;;;;;;;-139.48;100.00;61774.03;4999977;28;20052;-74
2022/03/05 09:59:12;;;;;;;25.77;18.63;;;;;;;-139.48;100.00;61774.03;5014259;28;19943;-74
2022/03/05 10:01:56;;;;;;;27.50;20.58;;;;;;;-139.48;100.00;61774.03;5013028;28;20134;-75
2022/03/05 10:04:41;;;;;;;23.98;18.58;;;;;;;-139.48;100.00;61774.03;5036154;22;20479;-74
2022/03/05 10:07:25;;;;;;;24.98;19.20;;;;;;;-139.48;100.00;61774.03;5013323;28;20164;-74
2022/03/05 10:10:09;;;;;;;21.10;15.30;;;;;;;-139.48;100.00;61774.03;5012970;28;20049;-74
2022/03/05 10:12:53;;;;;;;19.00;14.35;;;;;;;-139.48;100.00;61774.03;5014232;28;20080;-74
2022/03/05 10:15:37;;;;;;;16.77;11.43;;;;;;;-139.48;100.00;61774.03;5013884;28;20096;-75
2022/03/05 10:18:27;;;;;;;;;;;;;;;-139.48;100.00;61774.03;4999536;28;20049;-74
2022/03/05 10:21:12;;;;;;;25.63;19.08;;;;;;;-139.48;100.00;61774.03;5013069;28;20336;-74
2022/03/05 10:24:08;;;;;;;27.67;19.88;;;;;;;-139.48;100.00;61774.03;5014195;28;20060;-74
2022/03/05 10:26:57;;;;;;;19.60;14.18;;;;;;;-139.48;100.00;61774.03;5013676;28;20041;-75
2022/03/05 10:29:41;;;;;;;18.67;13.38;;;;;;;-139.48;100.00;61774.03;5012831;28;20103;-74
2022/03/05 10:32:27;;;;;;;23.92;16.23;;;;;;;-139.48;100.00;61774.03;5013803;28;20160;-74
2022/03/05 10:35:11;;;;;;;18.67;13.35;;;;;;;-139.48;100.00;61774.03;5012790;28;20099;-74
2022/03/05 10:37:55;;;;;;;15.57;11.73;;;;;;;-139.48;100.00;61774.03;5012726;28;20056;-75
2022/03/05 10:40:39;;;;;;;14.98;10.65;;;;;;;-139.48;100.00;61774.03;5012781;28;20508;-74
2022/03/05 10:43:24;;;;;;;13.05;10.20;;;;;;;-139.48;100.00;61774.03;5012752;28;20517;-74
2022/03/05 10:46:07;;;;;;;10.68;7.95;;;;;;;-139.48;100.00;61774.03;5012830;28;20052;-74
2022/03/05 10:48:51;;;;;;;9.50;6.88;;;;;;;-139.48;100.00;61774.03;5013606;28;20049;-74
2022/03/05 10:51:37;;;;;;;;;;;;;;;-139.48;100.00;61774.03;5013708;28;20072;-75
2022/03/05 10:54:37;;;;;;;158.50;104.57;;;;;;;-139.48;100.00;61774.03;5012336;28;19963;-74
2022/03/05 10:57:22;;;;;;;17.85;13.02;;;;;;;-139.48;100.00;61774.03;5013758;28;20153;-74
2022/03/05 11:00:07;;;;;;;17.27;13.82;;;;;;;-139.48;100.00;61774.03;5013149;28;20048;-74
2022/03/05 11:02:51;;;;;;;21.55;19.38;;;;;;;-139.48;100.00;61774.03;5013154;28;20045;-75
2022/03/05 11:05:36;;;;;;;14.75;12.15;;;;;;;-139.48;100.00;61774.03;4998029;28;20056;-75
2022/03/05 11:08:20;;;;;;;15.68;11.77;;;;;;;-139.48;100.00;61774.03;5012609;28;20061;-74
2022/03/05 11:11:04;;;;;;;13.27;10.70;;;;;;;-139.48;100.00;61774.03;5011941;28;20125;-75
2022/03/05 11:13:49;;;;;;;23.42;20.15;;;;;;;-139.48;100.00;61774.03;4998195;28;20103;-74
2022/03/05 11:16:33;;;;;;;13.88;11.38;;;;;;;-139.48;100.00;61774.03;5013474;28;20136;-75
2022/03/05 11:19:17;;;;;;;11.98;9.70;;;;;;;-139.48;100.00;61774.03;5011946;28;20049;-74
2022/03/05 11:22:02;;;;;;;12.10;9.70;;;;;;;-139.48;100.00;61774.03;5012119;28;20232;-74
2022/03/05 11:24:46;;;;;;;7.75;6.38;;;;;;;-139.48;100.00;61774.03;5011899;28;20129;-74
2022/03/05 11:27:30;;;;;;;;;;;;;;;-139.48;100.00;61774.03;5012269;28;20064;-74
2022/03/05 11:30:17;;;;;;;10.18;9.02;;;;;;;-139.48;100.00;61774.03;5012007;28;19925;-75
2022/03/05 11:33:01;;;;;;;10.27;8.80;;;;;;;-139.48;100.00;61774.03;5012100;28;20156;-74
2022/03/05 11:35:45;;;;;;;13.02;11.00;;;;;;;-139.48;100.00;61774.03;5011935;28;20061;-75
2022/03/05 11:38:47;;;;;;;12.07;10.80;;;;;;;-139.48;100.00;61774.03;5011818;28;20100;-75
2022/03/05 11:41:31;;;;;;;9.30;7.60;;;;;;;-139.48;100.00;61774.03;5012994;28;20044;-75
2022/03/05 11:44:16;;;;;;;10.43;7.95;;;;;;;-139.48;100.00;61774.03;5011746;28;20415;-75
2022/03/05 11:47:18;;;;;;;9.00;6.70;;;;;;;-139.48;100.00;61774.03;5016636;28;20557;-75
2022/03/05 11:50:04;;;;;;;9.05;7.32;;;;;;;-139.48;100.00;61774.03;5017266;28;20115;-75
2022/03/05 11:52:53;;;;;;;9.48;6.75;;;;;;;-139.48;100.00;61774.03;5016089;28;20056;-75
2022/03/05 11:55:41;;;;;;;9.23;6.88;;;;;;;-139.48;100.00;61774.03;5015581;28;20100;-75
2022/03/05 11:58:29;;;;;;;19.58;16.33;;;;;;;-139.48;100.00;61774.03;5015806;28;20132;-75
2022/03/05 12:01:34;;;;;;;11.15;9.95;;;;;;;-139.48;100.00;61774.03;5015456;28;20073;-75
2022/03/05 12:04:22;;;;;;;20.50;17.05;;;;;;;-139.48;100.00;61774.03;5015441;28;20107;-75
2022/03/05 12:07:13;;;;;;;11.02;9.50;;;;;;;-139.48;100.00;61774.03;5015211;28;20099;-75
2022/03/05 12:09:59;;;;;;;13.85;12.38;;;;;;;-139.48;100.00;61774.03;5016446;28;20052;-74
2022/03/05 12:13:02;;;;;;;13.02;10.60;;;;;;;-139.48;100.00;61774.03;5015388;28;20056;-75
2022/03/05 12:15:46;;;;;;;17.20;14.67;;;;;;;-139.48;100.00;61774.03;5016704;28;20161;-75
2022/03/05 12:18:30;;;;;;;11.57;9.30;;;;;;;-139.48;100.00;61774.03;5016099;28;20081;-75
2022/03/05 12:21:28;;;;;;;12.93;9.50;;;;;;;-139.48;100.00;61774.03;5001509;28;20500;-75
2022/03/05 12:24:12;;;;;;;13.13;10.88;;;;;;;-139.48;100.00;61774.03;5016282;28;20543;-75
2022/03/05 12:26:56;;;;;;;11.52;9.00;;;;;;;-139.48;100.00;61774.03;5016385;28;20092;-75
2022/03/05 12:29:47;;;;;;;11.95;9.63;;;;;;;-139.48;100.00;61774.03;5016178;28;20075;-75